sensor_id;sensor_type;location;lat;lon;timestamp;temperature;humidity
46336;DHT22;31365;48.858;8.530;2022-12-29T00:00:31;12.70;99.90
46336;DHT22;31365;48.858;8.530;2022-12-29T00:02:59;13.10;99.90
46336;DHT22;31365;48.858;8.530;2022-12-29T00:05:29;13.20;99.90
46336;DHT22;31365;48.858;8.530;2022-12-29T00:07:58;13.60;99.90
46336;DHT22;31365;48.858;8.530;2022-12-29T00:10:26;13.20;99.90
46336;DHT22;31365;48.858;8.530;2022-12-29T00:12:55;12.80;99.90
46336;DHT22;31365;48.858;8.530;2022-12-29T00:15:41;12.90;99.90
46336;DHT22;31365;48.858;8.530;2022-12-29T00:18:10;12.80;99.90
46336;DHT22;31365;48.858;8.530;2022-12-29T00:20:39;13.10;99.90
46336;DHT22;31365;48.858;8.530;2022-12-29T00:23:25;12.80;99.90
46336;DHT22;31365;48.858;8.530;2022-12-29T00:26:13;13.40;99.90
46336;DHT22;31365;48.858;8.530;2022-12-29T00:28:59;13.30;99.90
46336;DHT22;31365;48.858;8.530;2022-12-29T00:31:45;12.80;99.90
46336;DHT22;31365;48.858;8.530;2022-12-29T00:34:31;12.80;99.90
46336;DHT22;31365;48.858;8.530;2022-12-29T00:37:18;12.80;99.90
46336;DHT22;31365;48.858;8.530;2022-12-29T00:40:08;12.80;99.90
46336;DHT22;31365;48.858;8.530;2022-12-29T00:42:50;12.80;99.90
46336;DHT22;31365;48.858;8.530;2022-12-29T00:45:36;12.80;99.90
46336;DHT22;31365;48.858;8.530;2022-12-29T00:48:08;12.90;99.90
46336;DHT22;31365;48.858;8.530;2022-12-29T00:50:36;12.90;99.90
46336;DHT22;31365;48.858;8.530;2022-12-29T00:53:05;13.40;99.90
46336;DHT22;31365;48.858;8.530;2022-12-29T00:55:36;13.10;99.90
46336;DHT22;31365;48.858;8.530;2022-12-29T00:58:05;12.80;99.90
46336;DHT22;31365;48.858;8.530;2022-12-29T01:00:33;12.70;99.90
46336;DHT22;31365;48.858;8.530;2022-12-29T01:03:02;12.60;99.90
46336;DHT22;31365;48.858;8.530;2022-12-29T01:05:35;12.60;99.90
46336;DHT22;31365;48.858;8.530;2022-12-29T01:08:06;12.40;99.90
46336;DHT22;31365;48.858;8.530;2022-12-29T01:10:35;12.50;99.90
46336;DHT22;31365;48.858;8.530;2022-12-29T01:13:02;12.40;99.90
46336;DHT22;31365;48.858;8.530;2022-12-29T01:15:31;12.40;99.90
46336;DHT22;31365;48.858;8.530;2022-12-29T01:17:59;12.60;99.90
46336;DHT22;31365;48.858;8.530;2022-12-29T01:20:29;12.30;99.90
46336;DHT22;31365;48.858;8.530;2022-12-29T01:22:57;12.40;99.90
46336;DHT22;31365;48.858;8.530;2022-12-29T01:25:27;12.70;99.90
46336;DHT22;31365;48.858;8.530;2022-12-29T01:27:56;12.30;99.90
46336;DHT22;31365;48.858;8.530;2022-12-29T01:30:25;12.30;99.90
46336;DHT22;31365;48.858;8.530;2022-12-29T01:32:53;12.30;99.90
46336;DHT22;31365;48.858;8.530;2022-12-29T01:35:22;12.30;99.90
46336;DHT22;31365;48.858;8.530;2022-12-29T01:37:50;13.20;99.90
46336;DHT22;31365;48.858;8.530;2022-12-29T01:40:19;12.40;99.90
46336;DHT22;31365;48.858;8.530;2022-12-29T01:42:49;12.40;99.90
46336;DHT22;31365;48.858;8.530;2022-12-29T01:45:18;12.50;99.90
46336;DHT22;31365;48.858;8.530;2022-12-29T01:47:50;12.40;99.90
46336;DHT22;31365;48.858;8.530;2022-12-29T01:50:25;12.40;99.90
46336;DHT22;31365;48.858;8.530;2022-12-29T01:52:57;12.30;99.90
46336;DHT22;31365;48.858;8.530;2022-12-29T01:55:33;12.40;99.90
46336;DHT22;31365;48.858;8.530;2022-12-29T01:58:09;12.40;99.90
46336;DHT22;31365;48.858;8.530;2022-12-29T02:00:41;12.80;99.90
46336;DHT22;31365;48.858;8.530;2022-12-29T02:03:10;12.40;99.90
46336;DHT22;31365;48.858;8.530;2022-12-29T02:05:43;12.40;99.90
46336;DHT22;31365;48.858;8.530;2022-12-29T02:08:16;12.30;99.90
46336;DHT22;31365;48.858;8.530;2022-12-29T02:10:47;12.50;99.90
46336;DHT22;31365;48.858;8.530;2022-12-29T02:13:17;12.30;99.90
46336;DHT22;31365;48.858;8.530;2022-12-29T02:15:54;12.30;99.90
46336;DHT22;31365;48.858;8.530;2022-12-29T02:18:40;12.70;99.90
46336;DHT22;31365;48.858;8.530;2022-12-29T02:25:00;12.20;99.90
46336;DHT22;31365;48.858;8.530;2022-12-29T02:28:01;12.60;99.90
46336;DHT22;31365;48.858;8.530;2022-12-29T02:31:10;12.20;99.90
46336;DHT22;31365;48.858;8.530;2022-12-29T02:33:57;12.20;99.90
46336;DHT22;31365;48.858;8.530;2022-12-29T02:36:42;12.20;99.90
46336;DHT22;31365;48.858;8.530;2022-12-29T02:39:23;12.20;99.90
46336;DHT22;31365;48.858;8.530;2022-12-29T02:42:05;12.20;99.90
46336;DHT22;31365;48.858;8.530;2022-12-29T02:44:50;12.10;99.90
46336;DHT22;31365;48.858;8.530;2022-12-29T02:47:32;12.20;99.90
46336;DHT22;31365;48.858;8.530;2022-12-29T02:50:10;12.20;99.90
46336;DHT22;31365;48.858;8.530;2022-12-29T02:52:48;12.20;99.90
46336;DHT22;31365;48.858;8.530;2022-12-29T02:55:20;12.30;99.90
46336;DHT22;31365;48.858;8.530;2022-12-29T02:57:48;12.20;99.90
46336;DHT22;31365;48.858;8.530;2022-12-29T03:00:34;12.20;99.90
46336;DHT22;31365;48.858;8.530;2022-12-29T03:03:20;12.30;99.90
46336;DHT22;31365;48.858;8.530;2022-12-29T03:06:30;12.20;99.90
46336;DHT22;31365;48.858;8.530;2022-12-29T03:09:11;12.20;99.90
46336;DHT22;31365;48.858;8.530;2022-12-29T03:11:52;12.80;99.90
46336;DHT22;31365;48.858;8.530;2022-12-29T03:14:49;12.00;99.90
46336;DHT22;31365;48.858;8.530;2022-12-29T03:17:53;11.90;99.90
46336;DHT22;31365;48.858;8.530;2022-12-29T03:20:32;11.80;99.90
46336;DHT22;31365;48.858;8.530;2022-12-29T03:23:06;11.70;99.90
46336;DHT22;31365;48.858;8.530;2022-12-29T03:25:39;11.80;99.90
46336;DHT22;31365;48.858;8.530;2022-12-29T03:28:13;11.70;99.90
46336;DHT22;31365;48.858;8.530;2022-12-29T03:30:47;11.70;99.90
46336;DHT22;31365;48.858;8.530;2022-12-29T03:33:21;11.50;99.90
46336;DHT22;31365;48.858;8.530;2022-12-29T03:35:59;11.70;99.90
46336;DHT22;31365;48.858;8.530;2022-12-29T03:38:39;11.70;99.90
46336;DHT22;31365;48.858;8.530;2022-12-29T03:41:16;11.60;99.90
46336;DHT22;31365;48.858;8.530;2022-12-29T03:43:48;11.60;99.90
46336;DHT22;31365;48.858;8.530;2022-12-29T03:46:17;11.50;99.90
46336;DHT22;31365;48.858;8.530;2022-12-29T03:48:46;12.10;99.90
46336;DHT22;31365;48.858;8.530;2022-12-29T03:51:15;11.60;99.90
46336;DHT22;31365;48.858;8.530;2022-12-29T03:53:44;11.90;99.90
46336;DHT22;31365;48.858;8.530;2022-12-29T03:56:13;11.80;99.90
46336;DHT22;31365;48.858;8.530;2022-12-29T03:58:44;11.90;99.90
46336;DHT22;31365;48.858;8.530;2022-12-29T04:01:17;11.90;99.90
46336;DHT22;31365;48.858;8.530;2022-12-29T04:03:48;12.10;99.90
46336;DHT22;31365;48.858;8.530;2022-12-29T04:06:18;11.90;99.90
46336;DHT22;31365;48.858;8.530;2022-12-29T04:08:52;12.60;99.90
46336;DHT22;31365;48.858;8.530;2022-12-29T04:11:21;11.90;99.90
46336;DHT22;31365;48.858;8.530;2022-12-29T04:13:57;11.90;99.90
46336;DHT22;31365;48.858;8.530;2022-12-29T04:16:29;12.00;99.90
46336;DHT22;31365;48.858;8.530;2022-12-29T04:18:57;11.70;99.90
46336;DHT22;31365;48.858;8.530;2022-12-29T04:21:30;11.90;99.90
46336;DHT22;31365;48.858;8.530;2022-12-29T04:23:59;12.60;99.90
46336;DHT22;31365;48.858;8.530;2022-12-29T04:26:28;11.80;99.90
46336;DHT22;31365;48.858;8.530;2022-12-29T04:29:14;11.80;99.90
46336;DHT22;31365;48.858;8.530;2022-12-29T04:32:06;11.90;99.90
46336;DHT22;31365;48.858;8.530;2022-12-29T04:34:39;11.70;99.90
46336;DHT22;31365;48.858;8.530;2022-12-29T04:37:10;11.60;99.90
46336;DHT22;31365;48.858;8.530;2022-12-29T04:39:39;11.70;99.90
46336;DHT22;31365;48.858;8.530;2022-12-29T04:42:08;11.80;99.90
46336;DHT22;31365;48.858;8.530;2022-12-29T04:44:36;11.70;99.90
46336;DHT22;31365;48.858;8.530;2022-12-29T04:47:30;11.90;99.90
46336;DHT22;31365;48.858;8.530;2022-12-29T04:50:19;11.70;99.90
46336;DHT22;31365;48.858;8.530;2022-12-29T04:53:10;11.70;99.90
46336;DHT22;31365;48.858;8.530;2022-12-29T04:55:39;11.70;99.90
46336;DHT22;31365;48.858;8.530;2022-12-29T04:58:07;12.50;99.90
46336;DHT22;31365;48.858;8.530;2022-12-29T05:00:36;12.10;99.90
46336;DHT22;31365;48.858;8.530;2022-12-29T05:03:05;12.60;99.90
46336;DHT22;31365;48.858;8.530;2022-12-29T05:05:35;11.70;99.90
46336;DHT22;31365;48.858;8.530;2022-12-29T05:08:05;11.60;99.90
46336;DHT22;31365;48.858;8.530;2022-12-29T05:10:35;11.70;99.90
46336;DHT22;31365;48.858;8.530;2022-12-29T05:13:09;11.80;99.90
46336;DHT22;31365;48.858;8.530;2022-12-29T05:15:39;11.90;99.90
46336;DHT22;31365;48.858;8.530;2022-12-29T05:18:07;11.90;99.90
46336;DHT22;31365;48.858;8.530;2022-12-29T05:20:36;11.90;99.90
46336;DHT22;31365;48.858;8.530;2022-12-29T05:23:04;12.50;99.90
46336;DHT22;31365;48.858;8.530;2022-12-29T05:25:35;12.00;99.90
46336;DHT22;31365;48.858;8.530;2022-12-29T05:28:14;12.00;99.90
46336;DHT22;31365;48.858;8.530;2022-12-29T05:31:01;12.80;99.90
46336;DHT22;31365;48.858;8.530;2022-12-29T05:33:30;12.00;99.90
46336;DHT22;31365;48.858;8.530;2022-12-29T05:36:03;12.00;99.90
46336;DHT22;31365;48.858;8.530;2022-12-29T05:38:33;11.90;99.90
46336;DHT22;31365;48.858;8.530;2022-12-29T05:41:04;12.00;99.90
46336;DHT22;31365;48.858;8.530;2022-12-29T05:43:48;11.90;99.90
46336;DHT22;31365;48.858;8.530;2022-12-29T05:46:35;11.90;99.90
46336;DHT22;31365;48.858;8.530;2022-12-29T05:49:20;11.80;99.90
46336;DHT22;31365;48.858;8.530;2022-12-29T05:52:07;12.00;99.90
46336;DHT22;31365;48.858;8.530;2022-12-29T05:54:36;11.80;99.90
46336;DHT22;31365;48.858;8.530;2022-12-29T05:57:12;12.10;99.90
46336;DHT22;31365;48.858;8.530;2022-12-29T06:00:04;11.80;99.90
46336;DHT22;31365;48.858;8.530;2022-12-29T06:02:41;11.80;99.90
46336;DHT22;31365;48.858;8.530;2022-12-29T06:05:10;12.30;99.90
46336;DHT22;31365;48.858;8.530;2022-12-29T06:07:39;12.00;99.90
46336;DHT22;31365;48.858;8.530;2022-12-29T06:10:08;12.00;99.90
46336;DHT22;31365;48.858;8.530;2022-12-29T06:12:48;12.00;99.90
46336;DHT22;31365;48.858;8.530;2022-12-29T06:15:17;12.10;99.90
46336;DHT22;31365;48.858;8.530;2022-12-29T06:17:48;12.30;99.90
46336;DHT22;31365;48.858;8.530;2022-12-29T06:20:17;12.50;99.90
46336;DHT22;31365;48.858;8.530;2022-12-29T06:22:45;12.00;99.90
46336;DHT22;31365;48.858;8.530;2022-12-29T06:25:15;12.60;99.90
46336;DHT22;31365;48.858;8.530;2022-12-29T06:27:44;12.00;99.90
46336;DHT22;31365;48.858;8.530;2022-12-29T06:30:14;12.10;99.90
46336;DHT22;31365;48.858;8.530;2022-12-29T06:32:44;12.10;99.90
46336;DHT22;31365;48.858;8.530;2022-12-29T06:35:13;12.10;99.90
46336;DHT22;31365;48.858;8.530;2022-12-29T06:37:49;12.10;99.90
46336;DHT22;31365;48.858;8.530;2022-12-29T06:40:17;12.90;99.90
46336;DHT22;31365;48.858;8.530;2022-12-29T06:43:04;12.30;99.90
46336;DHT22;31365;48.858;8.530;2022-12-29T06:45:44;12.80;99.90
46336;DHT22;31365;48.858;8.530;2022-12-29T06:48:34;12.40;99.90
46336;DHT22;31365;48.858;8.530;2022-12-29T06:51:04;12.30;99.90
46336;DHT22;31365;48.858;8.530;2022-12-29T06:53:32;12.30;99.90
46336;DHT22;31365;48.858;8.530;2022-12-29T06:56:00;12.40;99.90
46336;DHT22;31365;48.858;8.530;2022-12-29T06:58:29;12.30;99.90
46336;DHT22;31365;48.858;8.530;2022-12-29T07:00:59;12.30;99.90
46336;DHT22;31365;48.858;8.530;2022-12-29T07:03:27;12.70;99.90
46336;DHT22;31365;48.858;8.530;2022-12-29T07:05:56;12.30;99.90
46336;DHT22;31365;48.858;8.530;2022-12-29T07:08:24;12.40;99.90
46336;DHT22;31365;48.858;8.530;2022-12-29T07:10:53;12.40;99.90
46336;DHT22;31365;48.858;8.530;2022-12-29T07:13:23;12.40;99.90
46336;DHT22;31365;48.858;8.530;2022-12-29T07:15:51;13.00;99.90
46336;DHT22;31365;48.858;8.530;2022-12-29T07:18:21;12.60;99.90
46336;DHT22;31365;48.858;8.530;2022-12-29T07:20:49;13.30;99.90
46336;DHT22;31365;48.858;8.530;2022-12-29T07:23:18;12.60;99.90
46336;DHT22;31365;48.858;8.530;2022-12-29T07:25:46;13.20;99.90
46336;DHT22;31365;48.858;8.530;2022-12-29T07:28:15;12.50;99.90
46336;DHT22;31365;48.858;8.530;2022-12-29T07:30:43;12.60;99.90
46336;DHT22;31365;48.858;8.530;2022-12-29T07:33:14;12.90;99.90
46336;DHT22;31365;48.858;8.530;2022-12-29T07:35:44;12.60;99.90
46336;DHT22;31365;48.858;8.530;2022-12-29T07:38:12;13.00;99.90
46336;DHT22;31365;48.858;8.530;2022-12-29T07:40:41;12.50;99.90
46336;DHT22;31365;48.858;8.530;2022-12-29T07:43:09;13.00;99.90
46336;DHT22;31365;48.858;8.530;2022-12-29T07:45:44;12.90;99.90
46336;DHT22;31365;48.858;8.530;2022-12-29T07:48:14;12.60;99.90
46336;DHT22;31365;48.858;8.530;2022-12-29T07:50:44;12.90;99.90
46336;DHT22;31365;48.858;8.530;2022-12-29T07:53:13;13.30;99.90
46336;DHT22;31365;48.858;8.530;2022-12-29T07:55:42;12.70;99.90
46336;DHT22;31365;48.858;8.530;2022-12-29T07:58:10;12.80;99.90
46336;DHT22;31365;48.858;8.530;2022-12-29T08:00:39;13.10;99.90
46336;DHT22;31365;48.858;8.530;2022-12-29T08:03:08;13.40;99.90
46336;DHT22;31365;48.858;8.530;2022-12-29T08:05:37;12.80;99.90
46336;DHT22;31365;48.858;8.530;2022-12-29T08:08:07;12.80;99.90
46336;DHT22;31365;48.858;8.530;2022-12-29T08:10:35;13.30;99.90
46336;DHT22;31365;48.858;8.530;2022-12-29T08:13:04;13.30;99.90
46336;DHT22;31365;48.858;8.530;2022-12-29T09:48:13;12.90;99.90
46336;DHT22;31365;48.858;8.530;2022-12-29T09:50:49;13.00;99.90
46336;DHT22;31365;48.858;8.530;2022-12-29T09:53:23;13.60;99.90
46336;DHT22;31365;48.858;8.530;2022-12-29T09:55:57;13.20;99.90
46336;DHT22;31365;48.858;8.530;2022-12-29T09:58:30;13.20;99.90
46336;DHT22;31365;48.858;8.530;2022-12-29T10:01:05;13.50;99.90
46336;DHT22;31365;48.858;8.530;2022-12-29T10:03:45;13.00;99.90
46336;DHT22;31365;48.858;8.530;2022-12-29T10:06:19;13.10;99.90
46336;DHT22;31365;48.858;8.530;2022-12-29T10:08:57;13.10;99.90
46336;DHT22;31365;48.858;8.530;2022-12-29T10:11:53;13.10;99.90
46336;DHT22;31365;48.858;8.530;2022-12-29T10:14:41;13.90;99.90
46336;DHT22;31365;48.858;8.530;2022-12-29T10:17:27;13.40;99.90
46336;DHT22;31365;48.858;8.530;2022-12-29T10:20:18;13.60;99.90
46336;DHT22;31365;48.858;8.530;2022-12-29T10:23:05;13.70;99.90
46336;DHT22;31365;48.858;8.530;2022-12-29T10:25:45;13.70;99.90
46336;DHT22;31365;48.858;8.530;2022-12-29T10:28:20;14.50;99.90
46336;DHT22;31365;48.858;8.530;2022-12-29T10:30:50;14.70;99.90
46336;DHT22;31365;48.858;8.530;2022-12-29T10:33:23;14.20;99.90
46336;DHT22;31365;48.858;8.530;2022-12-29T10:36:04;14.40;99.90
46336;DHT22;31365;48.858;8.530;2022-12-29T10:38:48;14.40;99.90
46336;DHT22;31365;48.858;8.530;2022-12-29T10:41:31;14.40;99.90
46336;DHT22;31365;48.858;8.530;2022-12-29T10:44:10;14.60;99.90
46336;DHT22;31365;48.858;8.530;2022-12-29T10:46:44;14.90;99.90
46336;DHT22;31365;48.858;8.530;2022-12-29T10:49:23;14.90;99.90
46336;DHT22;31365;48.858;8.530;2022-12-29T10:51:58;15.00;99.90
46336;DHT22;31365;48.858;8.530;2022-12-29T10:54:36;15.50;99.90
46336;DHT22;31365;48.858;8.530;2022-12-29T10:57:15;15.90;99.90
46336;DHT22;31365;48.858;8.530;2022-12-29T10:59:53;15.70;99.90
46336;DHT22;31365;48.858;8.530;2022-12-29T11:02:47;15.60;99.90
46336;DHT22;31365;48.858;8.530;2022-12-29T11:05:37;16.00;99.90
46336;DHT22;31365;48.858;8.530;2022-12-29T11:08:12;15.10;99.90
46336;DHT22;31365;48.858;8.530;2022-12-29T11:10:45;14.90;99.90
46336;DHT22;31365;48.858;8.530;2022-12-29T11:13:25;14.70;99.90
46336;DHT22;31365;48.858;8.530;2022-12-29T11:16:05;14.20;99.90
46336;DHT22;31365;48.858;8.530;2022-12-29T11:18:36;14.10;99.90
46336;DHT22;31365;48.858;8.530;2022-12-29T11:21:09;13.90;99.90
46336;DHT22;31365;48.858;8.530;2022-12-29T11:23:58;14.40;99.90
46336;DHT22;31365;48.858;8.530;2022-12-29T11:26:28;13.80;99.90
46336;DHT22;31365;48.858;8.530;2022-12-29T11:29:25;14.10;99.90
46336;DHT22;31365;48.858;8.530;2022-12-29T11:31:56;13.70;99.90
46336;DHT22;31365;48.858;8.530;2022-12-29T11:34:31;13.60;99.90
46336;DHT22;31365;48.858;8.530;2022-12-29T11:37:04;13.60;99.90
46336;DHT22;31365;48.858;8.530;2022-12-29T11:39:41;14.30;99.90
46336;DHT22;31365;48.858;8.530;2022-12-29T11:42:17;14.60;99.90
46336;DHT22;31365;48.858;8.530;2022-12-29T11:44:49;15.00;99.90
46336;DHT22;31365;48.858;8.530;2022-12-29T11:47:26;16.10;99.90
46336;DHT22;31365;48.858;8.530;2022-12-29T11:49:59;16.90;99.90
46336;DHT22;31365;48.858;8.530;2022-12-29T11:52:33;17.80;99.90
46336;DHT22;31365;48.858;8.530;2022-12-29T11:55:17;17.50;99.90
46336;DHT22;31365;48.858;8.530;2022-12-29T11:57:50;17.30;99.90
46336;DHT22;31365;48.858;8.530;2022-12-29T12:00:23;16.30;99.90
46336;DHT22;31365;48.858;8.530;2022-12-29T12:02:57;15.50;99.90
46336;DHT22;31365;48.858;8.530;2022-12-29T12:05:35;15.40;99.90
46336;DHT22;31365;48.858;8.530;2022-12-29T12:08:16;15.40;99.90
46336;DHT22;31365;48.858;8.530;2022-12-29T12:10:54;15.20;99.90
46336;DHT22;31365;48.858;8.530;2022-12-29T12:13:30;14.30;99.90
46336;DHT22;31365;48.858;8.530;2022-12-29T12:16:07;14.00;99.90
46336;DHT22;31365;48.858;8.530;2022-12-29T12:18:41;13.70;99.90
46336;DHT22;31365;48.858;8.530;2022-12-29T12:21:25;13.70;99.90
46336;DHT22;31365;48.858;8.530;2022-12-29T12:24:16;13.40;99.90
46336;DHT22;31365;48.858;8.530;2022-12-29T12:27:04;13.40;99.90
46336;DHT22;31365;48.858;8.530;2022-12-29T12:29:45;13.20;99.90
46336;DHT22;31365;48.858;8.530;2022-12-29T12:32:23;13.00;99.90
46336;DHT22;31365;48.858;8.530;2022-12-29T12:34:58;13.00;99.90
46336;DHT22;31365;48.858;8.530;2022-12-29T12:38:04;13.30;99.90
46336;DHT22;31365;48.858;8.530;2022-12-29T12:40:53;13.10;99.90
46336;DHT22;31365;48.858;8.530;2022-12-29T12:43:41;13.10;99.90
46336;DHT22;31365;48.858;8.530;2022-12-29T12:46:58;13.40;99.90
46336;DHT22;31365;48.858;8.530;2022-12-29T12:50:14;12.90;99.90
46336;DHT22;31365;48.858;8.530;2022-12-29T12:53:04;12.90;99.90
46336;DHT22;31365;48.858;8.530;2022-12-29T12:55:54;12.80;99.90
46336;DHT22;31365;48.858;8.530;2022-12-29T12:58:36;12.80;99.90
46336;DHT22;31365;48.858;8.530;2022-12-29T13:01:22;13.70;99.90
46336;DHT22;31365;48.858;8.530;2022-12-29T13:04:31;13.00;99.90
46336;DHT22;31365;48.858;8.530;2022-12-29T13:07:16;12.80;99.90
46336;DHT22;31365;48.858;8.530;2022-12-29T13:12:54;12.80;99.90
46336;DHT22;31365;48.858;8.530;2022-12-29T13:15:42;13.00;99.90
46336;DHT22;31365;48.858;8.530;2022-12-29T13:18:23;12.80;99.90
46336;DHT22;31365;48.858;8.530;2022-12-29T13:21:03;12.80;99.90
46336;DHT22;31365;48.858;8.530;2022-12-29T13:23:44;12.70;99.90
46336;DHT22;31365;48.858;8.530;2022-12-29T13:26:20;12.70;99.90
46336;DHT22;31365;48.858;8.530;2022-12-29T13:28:58;12.60;99.90
46336;DHT22;31365;48.858;8.530;2022-12-29T13:31:45;12.60;99.90
46336;DHT22;31365;48.858;8.530;2022-12-29T13:34:29;12.90;99.90
46336;DHT22;31365;48.858;8.530;2022-12-29T13:37:11;12.40;99.90
46336;DHT22;31365;48.858;8.530;2022-12-29T13:39:47;13.30;99.90
46336;DHT22;31365;48.858;8.530;2022-12-29T13:42:19;12.30;99.90
46336;DHT22;31365;48.858;8.530;2022-12-29T13:44:54;12.30;99.90
46336;DHT22;31365;48.858;8.530;2022-12-29T13:47:29;12.20;99.90
46336;DHT22;31365;48.858;8.530;2022-12-29T13:50:04;12.10;99.90
46336;DHT22;31365;48.858;8.530;2022-12-29T13:52:44;12.10;99.90
46336;DHT22;31365;48.858;8.530;2022-12-29T13:55:25;12.10;99.90
46336;DHT22;31365;48.858;8.530;2022-12-29T13:58:01;12.10;99.90
46336;DHT22;31365;48.858;8.530;2022-12-29T14:00:40;12.10;99.90
46336;DHT22;31365;48.858;8.530;2022-12-29T14:03:43;12.20;99.90
46336;DHT22;31365;48.858;8.530;2022-12-29T14:06:21;12.20;99.90
46336;DHT22;31365;48.858;8.530;2022-12-29T14:08:54;12.20;99.90
46336;DHT22;31365;48.858;8.530;2022-12-29T14:11:31;12.80;99.90
46336;DHT22;31365;48.858;8.530;2022-12-29T14:14:11;12.20;99.90
46336;DHT22;31365;48.858;8.530;2022-12-29T14:16:46;12.40;99.90
46336;DHT22;31365;48.858;8.530;2022-12-29T14:19:19;12.50;99.90
46336;DHT22;31365;48.858;8.530;2022-12-29T14:21:55;12.20;99.90
46336;DHT22;31365;48.858;8.530;2022-12-29T14:24:43;12.20;99.90
46336;DHT22;31365;48.858;8.530;2022-12-29T14:30:58;12.20;99.90
46336;DHT22;31365;48.858;8.530;2022-12-29T14:33:29;12.60;99.90
46336;DHT22;31365;48.858;8.530;2022-12-29T14:36:21;12.20;99.90
46336;DHT22;31365;48.858;8.530;2022-12-29T14:38:53;12.20;99.90
46336;DHT22;31365;48.858;8.530;2022-12-29T14:41:29;12.60;99.90
46336;DHT22;31365;48.858;8.530;2022-12-29T14:44:10;11.90;99.90
46336;DHT22;31365;48.858;8.530;2022-12-29T14:46:55;12.00;99.90
46336;DHT22;31365;48.858;8.530;2022-12-29T14:49:29;11.40;99.90
46336;DHT22;31365;48.858;8.530;2022-12-29T14:52:12;11.20;99.90
46336;DHT22;31365;48.858;8.530;2022-12-29T14:54:51;11.00;99.90
46336;DHT22;31365;48.858;8.530;2022-12-29T14:57:26;10.60;99.90
46336;DHT22;31365;48.858;8.530;2022-12-29T15:00:06;10.80;99.90
46336;DHT22;31365;48.858;8.530;2022-12-29T15:02:49;10.40;99.90
46336;DHT22;31365;48.858;8.530;2022-12-29T15:05:32;11.40;99.90
46336;DHT22;31365;48.858;8.530;2022-12-29T15:08:07;10.20;99.90
46336;DHT22;31365;48.858;8.530;2022-12-29T15:10:41;10.20;99.90
46336;DHT22;31365;48.858;8.530;2022-12-29T15:13:18;10.10;99.90
46336;DHT22;31365;48.858;8.530;2022-12-29T15:15:49;10.80;99.90
46336;DHT22;31365;48.858;8.530;2022-12-29T15:18:32;10.10;99.90
46336;DHT22;31365;48.858;8.530;2022-12-29T15:21:02;10.10;99.90
46336;DHT22;31365;48.858;8.530;2022-12-29T15:23:34;10.60;99.90
46336;DHT22;31365;48.858;8.530;2022-12-29T15:26:06;10.00;99.90
46336;DHT22;31365;48.858;8.530;2022-12-29T15:28:38;10.20;99.90
46336;DHT22;31365;48.858;8.530;2022-12-29T15:31:12;10.00;99.90
46336;DHT22;31365;48.858;8.530;2022-12-29T15:33:44;9.90;99.90
46336;DHT22;31365;48.858;8.530;2022-12-29T15:36:18;9.90;99.90
46336;DHT22;31365;48.858;8.530;2022-12-29T15:38:50;9.90;99.90
46336;DHT22;31365;48.858;8.530;2022-12-29T15:41:25;9.80;99.90
46336;DHT22;31365;48.858;8.530;2022-12-29T15:44:24;10.60;99.90
46336;DHT22;31365;48.858;8.530;2022-12-29T15:46:56;9.80;99.90
46336;DHT22;31365;48.858;8.530;2022-12-29T15:49:25;9.80;99.90
46336;DHT22;31365;48.858;8.530;2022-12-29T15:51:58;9.80;99.90
46336;DHT22;31365;48.858;8.530;2022-12-29T15:54:30;9.80;99.90
46336;DHT22;31365;48.858;8.530;2022-12-29T15:56:59;9.80;99.90
46336;DHT22;31365;48.858;8.530;2022-12-29T15:59:29;9.80;99.90
46336;DHT22;31365;48.858;8.530;2022-12-29T16:02:00;9.70;99.90
46336;DHT22;31365;48.858;8.530;2022-12-29T16:04:38;9.80;99.90
46336;DHT22;31365;48.858;8.530;2022-12-29T16:07:30;9.70;99.90
46336;DHT22;31365;48.858;8.530;2022-12-29T16:10:25;9.70;99.90
46336;DHT22;31365;48.858;8.530;2022-12-29T16:13:19;9.70;99.90
46336;DHT22;31365;48.858;8.530;2022-12-29T16:15:58;9.70;99.90
46336;DHT22;31365;48.858;8.530;2022-12-29T16:18:32;9.60;99.90
46336;DHT22;31365;48.858;8.530;2022-12-29T16:21:04;9.60;99.90
46336;DHT22;31365;48.858;8.530;2022-12-29T16:23:45;9.50;99.90
46336;DHT22;31365;48.858;8.530;2022-12-29T16:26:20;9.50;99.90
46336;DHT22;31365;48.858;8.530;2022-12-29T16:28:55;10.00;99.90
46336;DHT22;31365;48.858;8.530;2022-12-29T16:31:34;9.50;99.90
46336;DHT22;31365;48.858;8.530;2022-12-29T16:34:12;9.60;99.90
46336;DHT22;31365;48.858;8.530;2022-12-29T16:36:55;9.50;99.90
46336;DHT22;31365;48.858;8.530;2022-12-29T16:39:30;9.50;99.90
46336;DHT22;31365;48.858;8.530;2022-12-29T16:42:34;9.50;99.90
46336;DHT22;31365;48.858;8.530;2022-12-29T16:45:46;9.50;99.90
46336;DHT22;31365;48.858;8.530;2022-12-29T16:48:51;9.50;99.90
46336;DHT22;31365;48.858;8.530;2022-12-29T16:51:29;9.50;99.90
46336;DHT22;31365;48.858;8.530;2022-12-29T16:53:59;9.60;99.90
46336;DHT22;31365;48.858;8.530;2022-12-29T16:56:31;10.30;99.90
46336;DHT22;31365;48.858;8.530;2022-12-29T16:59:07;9.60;99.90
46336;DHT22;31365;48.858;8.530;2022-12-29T17:01:44;9.50;99.90
46336;DHT22;31365;48.858;8.530;2022-12-29T17:04:13;9.60;99.90
46336;DHT22;31365;48.858;8.530;2022-12-29T17:06:42;9.50;99.90
46336;DHT22;31365;48.858;8.530;2022-12-29T17:09:17;9.60;99.90
46336;DHT22;31365;48.858;8.530;2022-12-29T17:11:49;9.60;99.90
46336;DHT22;31365;48.858;8.530;2022-12-29T17:14:40;10.10;99.90
46336;DHT22;31365;48.858;8.530;2022-12-29T17:17:17;9.60;99.90
46336;DHT22;31365;48.858;8.530;2022-12-29T17:19:50;9.60;99.90
46336;DHT22;31365;48.858;8.530;2022-12-29T17:22:22;9.60;99.90
46336;DHT22;31365;48.858;8.530;2022-12-29T17:24:53;10.40;99.90
46336;DHT22;31365;48.858;8.530;2022-12-29T17:27:26;9.60;99.90
46336;DHT22;31365;48.858;8.530;2022-12-29T17:30:00;10.20;99.90
46336;DHT22;31365;48.858;8.530;2022-12-29T17:32:32;9.50;99.90
46336;DHT22;31365;48.858;8.530;2022-12-29T17:35:01;9.50;99.90
46336;DHT22;31365;48.858;8.530;2022-12-29T17:37:34;9.50;99.90
46336;DHT22;31365;48.858;8.530;2022-12-29T17:40:05;9.90;99.90
46336;DHT22;31365;48.858;8.530;2022-12-29T17:42:43;9.40;99.90
46336;DHT22;31365;48.858;8.530;2022-12-29T17:45:17;9.30;99.90
46336;DHT22;31365;48.858;8.530;2022-12-29T17:47:47;9.20;99.90
46336;DHT22;31365;48.858;8.530;2022-12-29T17:50:17;9.20;99.90
46336;DHT22;31365;48.858;8.530;2022-12-29T17:52:51;9.20;99.90
46336;DHT22;31365;48.858;8.530;2022-12-29T17:55:27;9.10;99.90
46336;DHT22;31365;48.858;8.530;2022-12-29T17:58:15;9.10;99.90
46336;DHT22;31365;48.858;8.530;2022-12-29T18:00:47;9.10;99.90
46336;DHT22;31365;48.858;8.530;2022-12-29T18:03:20;9.10;99.90
46336;DHT22;31365;48.858;8.530;2022-12-29T18:05:53;9.90;99.90
46336;DHT22;31365;48.858;8.530;2022-12-29T18:08:22;9.00;99.90
46336;DHT22;31365;48.858;8.530;2022-12-29T18:10:53;9.20;99.90
46336;DHT22;31365;48.858;8.530;2022-12-29T18:13:24;8.90;99.90